createdAt,value
2019-02-09T00:00:52.771Z,997.09
2019-02-09T00:01:51.308Z,997.08
2019-02-09T00:02:49.849Z,997
2019-02-09T00:03:48.577Z,997
2019-02-09T00:04:47.169Z,997.02
2019-02-09T00:05:45.831Z,997.01
2019-02-09T00:06:44.602Z,996.98
2019-02-09T00:07:43.187Z,997.02
2019-02-09T00:08:42.826Z,996.94
2019-02-09T00:09:41.390Z,996.97
2019-02-09T00:10:40.055Z,996.91
2019-02-09T00:11:38.521Z,996.93
2019-02-09T00:12:37.208Z,996.88
2019-02-09T00:13:35.758Z,996.86
2019-02-09T00:14:34.481Z,996.8
2019-02-09T00:15:33.050Z,996.76
2019-02-09T00:16:31.601Z,996.72
2019-02-09T00:17:30.210Z,996.79
2019-02-09T00:18:28.835Z,996.74
2019-02-09T00:19:27.388Z,996.65
2019-02-09T00:20:25.981Z,996.61
2019-02-09T00:21:24.570Z,996.57
2019-02-09T00:22:23.291Z,996.53
2019-02-09T00:23:21.828Z,996.49
2019-02-09T00:24:20.565Z,996.53
2019-02-09T00:25:19.141Z,996.51
2019-02-09T00:26:17.673Z,996.43
2019-02-09T00:27:16.401Z,996.45
2019-02-09T00:28:15.052Z,996.44
2019-02-09T00:29:13.592Z,996.39
2019-02-09T00:30:12.176Z,996.3
2019-02-09T00:31:10.734Z,996.31
2019-02-09T00:32:09.262Z,996.29
2019-02-09T00:33:07.840Z,996.35
2019-02-09T00:34:06.404Z,996.26
2019-02-09T00:35:05.008Z,996.22
2019-02-09T00:36:03.581Z,996.17
2019-02-09T00:37:02.828Z,996.12
2019-02-09T00:38:01.362Z,996.13
2019-02-09T00:38:59.924Z,996.15
2019-02-09T00:39:58.462Z,996.08
2019-02-09T00:40:56.998Z,996.11
2019-02-09T00:41:55.540Z,996.12
2019-02-09T00:42:54.100Z,996.16
2019-02-09T00:43:52.734Z,996.12
2019-02-09T00:44:51.378Z,996.1
2019-02-09T00:45:49.933Z,996.1
2019-02-09T00:46:48.546Z,996.1
2019-02-09T00:47:47.262Z,996.09
2019-02-09T00:48:45.885Z,996.08
2019-02-09T00:49:44.564Z,996.03
2019-02-09T00:50:43.113Z,996.07
2019-02-09T00:51:41.654Z,996.08
2019-02-09T00:52:40.219Z,996.07
2019-02-09T00:53:38.752Z,996
2019-02-09T00:54:37.294Z,995.93
2019-02-09T00:55:36.126Z,995.93
2019-02-09T00:56:34.988Z,995.98
2019-02-09T00:57:33.534Z,995.93
2019-02-09T00:58:32.161Z,995.92
2019-02-09T00:59:30.759Z,995.94
2019-02-09T01:00:29.338Z,995.97
2019-02-09T01:01:27.990Z,995.99
2019-02-09T01:02:26.757Z,995.98
2019-02-09T01:03:25.308Z,995.9
2019-02-09T01:04:24.413Z,995.89
2019-02-09T01:05:22.937Z,995.87
2019-02-09T01:06:21.459Z,995.87
2019-02-09T01:07:20.040Z,995.83
2019-02-09T01:08:18.828Z,995.8
2019-02-09T01:09:17.375Z,995.79
2019-02-09T01:10:15.911Z,995.74
2019-02-09T01:11:14.479Z,995.66
2019-02-09T01:12:14.252Z,995.66
2019-02-09T01:13:11.642Z,995.65
2019-02-09T01:14:10.390Z,995.64
2019-02-09T01:15:08.955Z,995.59
2019-02-09T01:16:07.519Z,995.63
2019-02-09T01:17:06.065Z,995.61
2019-02-09T01:18:04.577Z,995.6
2019-02-09T01:19:03.117Z,995.57
2019-02-09T01:20:01.651Z,995.6
2019-02-09T01:21:00.251Z,995.52
2019-02-09T01:21:58.899Z,995.58
2019-02-09T01:22:57.446Z,995.52
2019-02-09T01:23:56.105Z,995.58
2019-02-09T01:24:54.688Z,995.57
2019-02-09T01:25:53.261Z,995.54
2019-02-09T01:26:51.829Z,995.53
2019-02-09T01:27:50.580Z,995.5
2019-02-09T01:28:49.144Z,995.54
2019-02-09T01:29:47.678Z,995.58
2019-02-09T01:30:46.266Z,995.62
2019-02-09T01:31:44.820Z,995.54
2019-02-09T01:32:43.384Z,995.53
2019-02-09T01:33:41.933Z,995.58
2019-02-09T01:34:40.585Z,995.61
2019-02-09T01:35:39.133Z,995.54
2019-02-09T01:36:37.682Z,995.54
2019-02-09T01:37:36.379Z,995.52
2019-02-09T01:38:35.094Z,995.52
2019-02-09T01:39:33.617Z,995.54
2019-02-09T01:40:32.304Z,995.46
2019-02-09T01:41:30.867Z,995.39
2019-02-09T01:42:29.443Z,995.5
2019-02-09T01:43:28.007Z,995.56
2019-02-09T01:44:26.580Z,995.54
2019-02-09T01:45:25.261Z,995.54
2019-02-09T01:46:23.827Z,995.64
2019-02-09T01:47:22.560Z,995.62
2019-02-09T01:48:21.193Z,995.67
2019-02-09T01:49:19.730Z,995.71
2019-02-09T01:50:18.472Z,995.71
2019-02-09T01:51:17.015Z,995.71
2019-02-09T01:52:15.576Z,995.76
2019-02-09T01:53:14.133Z,995.86
2019-02-09T01:54:12.674Z,995.9
2019-02-09T01:55:11.250Z,995.91
2019-02-09T01:56:10.637Z,995.81
2019-02-09T01:57:09.171Z,995.96
2019-02-09T01:58:07.707Z,995.94
2019-02-09T01:59:06.249Z,996.02
2019-02-09T02:00:10.296Z,995.98
2019-02-09T02:01:03.677Z,995.98
2019-02-09T02:02:02.315Z,995.97
2019-02-09T02:03:01.054Z,995.93
2019-02-09T02:03:59.597Z,995.97
2019-02-09T02:04:58.253Z,995.86
2019-02-09T02:05:56.884Z,995.93
2019-02-09T02:06:55.493Z,995.92
2019-02-09T02:07:54.062Z,995.95
2019-02-09T02:08:52.828Z,995.94
2019-02-09T02:09:51.381Z,996.01
2019-02-09T02:10:49.925Z,995.89
2019-02-09T02:11:48.802Z,996.05
2019-02-09T02:12:47.436Z,996.11
2019-02-09T02:13:45.905Z,996.04
2019-02-09T02:14:44.476Z,996.09
2019-02-09T02:15:43.052Z,996.11
2019-02-09T02:16:41.599Z,996.1
2019-02-09T02:17:40.138Z,996.09
2019-02-09T02:18:38.782Z,996.14
2019-02-09T02:19:37.342Z,996.17
2019-02-09T02:20:35.883Z,996.26
2019-02-09T02:21:34.502Z,996.25
2019-02-09T02:22:33.036Z,996.34
2019-02-09T02:23:31.580Z,996.26
2019-02-09T02:24:30.130Z,996.35
2019-02-09T02:25:28.975Z,996.3
2019-02-09T02:26:27.560Z,996.4
2019-02-09T02:27:26.134Z,996.27
2019-02-09T02:28:24.702Z,996.41
2019-02-09T02:29:23.242Z,996.32
2019-02-09T02:30:22.974Z,996.34
2019-02-09T02:31:20.331Z,996.32
2019-02-09T02:32:18.888Z,996.4
2019-02-09T02:33:17.430Z,996.36
2019-02-09T02:34:16.002Z,996.43
2019-02-09T02:35:14.746Z,996.4
2019-02-09T02:36:13.537Z,996.35
2019-02-09T02:37:11.917Z,996.35
2019-02-09T02:38:10.527Z,996.28
2019-02-09T02:39:09.120Z,996.36
2019-02-09T02:40:07.694Z,996.33
2019-02-09T02:41:06.306Z,996.33
2019-02-09T02:42:04.887Z,996.27
2019-02-09T02:43:03.439Z,996.33
2019-02-09T02:44:01.995Z,996.34
2019-02-09T02:45:00.650Z,996.23
2019-02-09T02:45:59.188Z,996.32
2019-02-09T02:46:57.743Z,996.34
2019-02-09T02:47:56.454Z,996.32
2019-02-09T02:48:55.059Z,996.31
2019-02-09T02:49:53.630Z,996.29
2019-02-09T02:50:52.202Z,996.28
2019-02-09T02:51:50.781Z,996.29
2019-02-09T02:52:49.358Z,996.28
2019-02-09T02:53:48.046Z,996.3
2019-02-09T02:54:46.644Z,996.23
2019-02-09T02:55:45.194Z,996.26
2019-02-09T02:56:43.749Z,996.24
2019-02-09T02:57:42.298Z,996.21
2019-02-09T02:58:40.945Z,996.2
2019-02-09T02:59:39.690Z,996.16
2019-02-09T03:00:38.675Z,996.17
2019-02-09T03:01:37.248Z,996.16
2019-02-09T03:02:35.823Z,996.2
2019-02-09T03:03:34.385Z,996.28
2019-02-09T03:04:33.001Z,996.26
2019-02-09T03:05:32.238Z,996.26
2019-02-09T03:06:30.789Z,996.28
2019-02-09T03:07:29.482Z,996.18
2019-02-09T03:08:28.018Z,996.17
2019-02-09T03:09:26.776Z,996.2
2019-02-09T03:10:25.340Z,996.17
2019-02-09T03:11:23.866Z,996.17
2019-02-09T03:12:22.476Z,996.2
2019-02-09T03:13:21.445Z,996.23
2019-02-09T03:14:20.025Z,996.12
2019-02-09T03:15:18.600Z,996.14
2019-02-09T03:16:17.166Z,996.15
2019-02-09T03:17:15.701Z,996.13
2019-02-09T03:18:14.353Z,996.18
2019-02-09T03:19:12.986Z,996.12
2019-02-09T03:20:11.566Z,996.17
2019-02-09T03:21:10.106Z,996.09
2019-02-09T03:22:08.857Z,996.1
2019-02-09T03:23:07.512Z,996.09
2019-02-09T03:24:06.064Z,996.13
2019-02-09T03:25:04.599Z,996.25
2019-02-09T03:26:03.166Z,996.18
2019-02-09T03:27:01.724Z,996.27
2019-02-09T03:28:00.277Z,996.24
2019-02-09T03:28:58.817Z,996.21
2019-02-09T03:29:57.435Z,996.13
2019-02-09T03:30:55.959Z,996.06
2019-02-09T03:31:54.643Z,996.06
2019-02-09T03:32:53.247Z,995.98
2019-02-09T03:33:51.795Z,996.02
2019-02-09T03:34:51.100Z,996.02
2019-02-09T03:35:49.633Z,996.01
2019-02-09T03:36:48.245Z,995.96
2019-02-09T03:37:46.856Z,995.95
2019-02-09T03:38:46.029Z,996.06
2019-02-09T03:39:43.999Z,996.07
2019-02-09T03:40:42.961Z,996.13
2019-02-09T03:41:41.540Z,996.09
2019-02-09T03:42:40.105Z,996.06
2019-02-09T03:43:38.711Z,996
2019-02-09T03:44:37.282Z,995.96
2019-02-09T03:45:35.821Z,995.97
2019-02-09T03:46:34.432Z,996.04
2019-02-09T03:47:33.050Z,995.93
2019-02-09T03:48:31.586Z,995.95
2019-02-09T03:49:30.248Z,995.96
2019-02-09T03:50:28.840Z,995.92
2019-02-09T03:51:27.400Z,995.99
2019-02-09T03:52:25.965Z,995.95
2019-02-09T03:53:24.527Z,996.07
2019-02-09T03:54:23.130Z,996.08
2019-02-09T03:55:21.688Z,995.94
2019-02-09T03:56:20.245Z,996.09
2019-02-09T03:57:18.907Z,996.13
2019-02-09T03:58:17.427Z,996.15
2019-02-09T03:59:16.019Z,996.27
2019-02-09T04:00:14.809Z,996.22
2019-02-09T04:01:13.367Z,996.21
2019-02-09T04:02:11.899Z,996.22
2019-02-09T04:03:10.648Z,996.25
2019-02-09T04:04:09.204Z,996.17
2019-02-09T04:05:07.730Z,996.21
2019-02-09T04:06:06.283Z,996.19
2019-02-09T04:07:04.837Z,996.18
2019-02-09T04:08:03.410Z,996.15
2019-02-09T04:09:01.968Z,996.13
2019-02-09T04:10:00.719Z,996.18
2019-02-09T04:10:59.267Z,996.3
2019-02-09T04:11:57.803Z,996.25
2019-02-09T04:12:56.423Z,996.27
2019-02-09T04:13:55.088Z,996.28
2019-02-09T04:14:53.713Z,996.25
2019-02-09T04:15:52.402Z,996.3
2019-02-09T04:16:50.958Z,996.29
2019-02-09T04:17:49.599Z,996.19
2019-02-09T04:18:48.141Z,996.29
2019-02-09T04:19:46.941Z,996.4
2019-02-09T04:20:45.487Z,996.34
2019-02-09T04:21:44.045Z,996.38
2019-02-09T04:22:42.889Z,996.39
2019-02-09T04:23:41.443Z,996.44
2019-02-09T04:24:40.094Z,996.44
2019-02-09T04:25:38.661Z,996.34
2019-02-09T04:26:37.212Z,996.29
2019-02-09T04:27:35.774Z,996.33
2019-02-09T04:28:34.605Z,996.37
2019-02-09T04:29:33.273Z,996.3
2019-02-09T04:30:31.823Z,996.39
2019-02-09T04:31:30.532Z,996.31
2019-02-09T04:32:29.055Z,996.36
2019-02-09T04:33:27.620Z,996.44
2019-02-09T04:34:26.165Z,996.44
2019-02-09T04:35:24.773Z,996.5
2019-02-09T04:36:24.196Z,996.45
2019-02-09T04:37:22.774Z,996.54
2019-02-09T04:38:21.341Z,996.45
2019-02-09T04:39:21.753Z,996.55
2019-02-09T04:40:18.437Z,996.44
2019-02-09T04:41:17.115Z,996.44
2019-02-09T04:42:15.663Z,996.44
2019-02-09T04:43:14.371Z,996.43
2019-02-09T04:44:13.015Z,996.37
2019-02-09T04:45:11.567Z,996.41
2019-02-09T04:46:10.141Z,996.4
2019-02-09T04:47:08.774Z,996.24
2019-02-09T04:48:07.313Z,996.32
2019-02-09T04:49:06.548Z,996.31
2019-02-09T04:50:05.136Z,996.26
2019-02-09T04:51:03.694Z,996.25
2019-02-09T04:52:02.327Z,996.26
2019-02-09T04:53:00.893Z,996.41
2019-02-09T04:53:59.456Z,996.31
2019-02-09T04:54:57.997Z,996.32
2019-02-09T04:55:56.576Z,996.28
2019-02-09T04:56:55.114Z,996.24
2019-02-09T04:57:53.654Z,996.46
2019-02-09T04:58:52.199Z,996.47
2019-02-09T04:59:50.761Z,996.5
2019-02-09T05:00:49.303Z,996.52
2019-02-09T05:01:47.847Z,996.56
2019-02-09T05:02:46.689Z,996.51
2019-02-09T05:03:45.303Z,996.62
2019-02-09T05:04:43.848Z,996.55
2019-02-09T05:05:42.638Z,996.6
2019-02-09T05:06:41.215Z,996.63
2019-02-09T05:07:39.761Z,996.58
2019-02-09T05:08:38.299Z,996.65
2019-02-09T05:09:36.871Z,996.65
2019-02-09T05:10:35.449Z,996.51
2019-02-09T05:11:34.004Z,996.78
2019-02-09T05:12:32.561Z,996.87
2019-02-09T05:13:31.266Z,996.77
2019-02-09T05:14:29.875Z,996.83
2019-02-09T05:15:28.782Z,996.77
2019-02-09T05:16:27.333Z,996.79
2019-02-09T05:17:25.874Z,996.93
2019-02-09T05:18:24.437Z,996.84
2019-02-09T05:19:23.237Z,996.84
2019-02-09T05:20:21.776Z,996.96
2019-02-09T05:21:20.323Z,996.94
2019-02-09T05:22:19.013Z,996.96
2019-02-09T05:23:17.564Z,997.02
2019-02-09T05:24:16.129Z,996.92
2019-02-09T05:25:14.840Z,996.93
2019-02-09T05:26:13.396Z,996.9
2019-02-09T05:27:12.040Z,997.01
2019-02-09T05:28:10.592Z,997.03
2019-02-09T05:29:09.186Z,996.95
2019-02-09T05:30:07.780Z,997.06
2019-02-09T05:31:06.310Z,997.1
2019-02-09T05:32:05.028Z,997.02
2019-02-09T05:33:03.579Z,996.96
2019-02-09T05:34:02.270Z,997.13
2019-02-09T05:35:00.975Z,997.12
2019-02-09T05:35:59.535Z,997.1
2019-02-09T05:36:58.192Z,997.14
2019-02-09T05:37:56.745Z,997.16
2019-02-09T05:38:55.312Z,997.17
2019-02-09T05:39:54.731Z,997.13
2019-02-09T05:40:53.397Z,997.13
2019-02-09T05:41:51.944Z,997.15
2019-02-09T05:42:50.591Z,997.23
2019-02-09T05:43:49.259Z,997.16
2019-02-09T05:44:47.835Z,997.29
2019-02-09T05:45:46.675Z,997.31
2019-02-09T05:46:45.292Z,997.41
2019-02-09T05:47:43.846Z,997.35
2019-02-09T05:48:42.409Z,997.36
2019-02-09T05:49:40.958Z,997.35
2019-02-09T05:50:39.487Z,997.38
2019-02-09T05:51:38.024Z,997.44
2019-02-09T05:52:36.583Z,997.4
2019-02-09T05:53:35.155Z,997.44
2019-02-09T05:54:33.696Z,997.42
2019-02-09T05:55:32.581Z,997.52
2019-02-09T05:56:31.220Z,997.49
2019-02-09T05:57:30.026Z,997.62
2019-02-09T05:58:28.560Z,997.71
2019-02-09T05:59:27.091Z,997.61
2019-02-09T06:00:25.671Z,997.64
2019-02-09T06:01:31.757Z,997.76
2019-02-09T06:02:23.018Z,997.76
2019-02-09T06:03:21.632Z,997.76
2019-02-09T06:04:20.187Z,997.82
2019-02-09T06:05:18.820Z,997.79
2019-02-09T06:06:17.372Z,997.83
2019-02-09T06:07:15.924Z,997.9
2019-02-09T06:08:14.694Z,997.97
2019-02-09T06:09:13.335Z,997.98
2019-02-09T06:10:11.922Z,997.9
2019-02-09T06:11:10.685Z,998.01
2019-02-09T06:12:09.240Z,998.09
2019-02-09T06:13:08.014Z,998.06
2019-02-09T06:14:06.702Z,998.1
2019-02-09T06:15:05.409Z,998.19
2019-02-09T06:16:04.009Z,998.32
2019-02-09T06:17:02.929Z,998.41
2019-02-09T06:18:01.460Z,998.34
2019-02-09T06:18:59.998Z,998.36
2019-02-09T06:19:58.646Z,998.41
2019-02-09T06:20:57.221Z,998.48
2019-02-09T06:21:56.809Z,998.44
2019-02-09T06:22:55.547Z,998.37
2019-02-09T06:23:54.104Z,998.27
2019-02-09T06:24:52.669Z,998.46
2019-02-09T06:25:51.237Z,998.51
2019-02-09T06:26:49.836Z,998.39
2019-02-09T06:27:48.640Z,998.19
2019-02-09T06:28:47.256Z,998.22
2019-02-09T06:29:45.829Z,998.31
2019-02-09T06:30:44.394Z,998.31
2019-02-09T06:31:42.949Z,998.31
2019-02-09T06:32:41.490Z,998.34
2019-02-09T06:33:40.073Z,998.3
2019-02-09T06:34:38.640Z,998.28
2019-02-09T06:35:37.190Z,998.29
2019-02-09T06:36:35.749Z,998.29
2019-02-09T06:37:34.292Z,998.34
2019-02-09T06:38:32.881Z,998.31
2019-02-09T06:39:31.443Z,998.3
2019-02-09T06:40:29.997Z,998.31
2019-02-09T06:41:28.707Z,998.36
2019-02-09T06:42:27.223Z,998.27
2019-02-09T06:43:25.819Z,998.27
2019-02-09T06:44:24.384Z,998.28
2019-02-09T06:45:23.039Z,998.27
2019-02-09T06:46:21.579Z,998.33
2019-02-09T06:47:20.202Z,998.43
2019-02-09T06:48:18.815Z,998.49
2019-02-09T06:49:17.400Z,998.53
2019-02-09T06:50:15.966Z,998.53
2019-02-09T06:51:14.734Z,998.54
2019-02-09T06:52:13.307Z,998.56
2019-02-09T06:53:11.871Z,998.61
2019-02-09T06:54:10.503Z,998.6
2019-02-09T06:55:09.144Z,998.59
2019-02-09T06:56:07.700Z,998.64
2019-02-09T06:57:06.606Z,998.65
2019-02-09T06:58:05.158Z,998.65
2019-02-09T06:59:03.722Z,998.68
2019-02-09T07:00:02.520Z,998.71
2019-02-09T07:01:01.283Z,998.73
2019-02-09T07:01:59.940Z,998.69
2019-02-09T07:02:58.648Z,998.7
2019-02-09T07:03:57.357Z,998.75
2019-02-09T07:04:55.934Z,998.83
2019-02-09T07:05:54.982Z,998.8
2019-02-09T07:06:53.522Z,998.84
2019-02-09T07:07:52.103Z,998.81
2019-02-09T07:08:50.700Z,998.91
2019-02-09T07:09:49.333Z,998.85
2019-02-09T07:10:47.907Z,998.85
2019-02-09T07:11:46.697Z,998.94
2019-02-09T07:12:45.305Z,998.93
2019-02-09T07:13:43.855Z,998.99
2019-02-09T07:14:42.685Z,998.88
2019-02-09T07:15:41.361Z,998.89
2019-02-09T07:16:39.897Z,998.89
2019-02-09T07:17:38.435Z,998.96
2019-02-09T07:18:37.032Z,998.97
2019-02-09T07:19:35.554Z,998.94
2019-02-09T07:20:34.111Z,999.01
2019-02-09T07:21:32.794Z,998.98
2019-02-09T07:22:31.346Z,998.96
2019-02-09T07:23:29.909Z,999.05
2019-02-09T07:24:28.793Z,999.09
2019-02-09T07:25:27.363Z,999.19
2019-02-09T07:26:25.926Z,999.05
2019-02-09T07:27:24.470Z,999.15
2019-02-09T07:28:23.042Z,999.09
2019-02-09T07:29:21.584Z,999.22
2019-02-09T07:30:20.124Z,999.22
2019-02-09T07:31:18.976Z,999.26
2019-02-09T07:32:17.551Z,999.23
2019-02-09T07:33:16.133Z,999.14
2019-02-09T07:34:14.892Z,999.2
2019-02-09T07:35:13.478Z,999.22
2019-02-09T07:36:12.009Z,999.1
2019-02-09T07:37:10.625Z,999.2
2019-02-09T07:38:09.174Z,999.25
2019-02-09T07:39:07.805Z,999.22
2019-02-09T07:40:06.337Z,999.15
2019-02-09T07:41:05.127Z,999.09
2019-02-09T07:42:03.672Z,999.13
2019-02-09T07:43:02.292Z,999.18
2019-02-09T07:44:00.973Z,999.17
2019-02-09T07:44:59.497Z,999.14
2019-02-09T07:45:58.150Z,999.12
2019-02-09T07:46:56.749Z,999.01
2019-02-09T07:47:55.396Z,999.1
2019-02-09T07:48:53.939Z,999.07
2019-02-09T07:49:52.503Z,999.11
2019-02-09T07:50:51.276Z,999.2
2019-02-09T07:51:49.845Z,999.11
2019-02-09T07:52:48.527Z,999.07
2019-02-09T07:55:28.628Z,999.18
2019-02-09T07:56:27.265Z,999.16
2019-02-09T07:57:25.837Z,999.2
2019-02-09T08:00:05.918Z,999.15
2019-02-09T08:01:05.845Z,999.21
2019-02-09T08:02:04.503Z,999.2
2019-02-09T08:03:01.798Z,999.13
2019-02-09T08:04:00.458Z,999.15
2019-02-09T08:04:59.350Z,999.16
2019-02-09T08:05:57.903Z,999.14
2019-02-09T08:06:56.504Z,999.1
2019-02-09T08:07:55.070Z,999.12
2019-02-09T08:08:53.621Z,999.12
2019-02-09T08:09:52.178Z,999.21
2019-02-09T08:10:50.948Z,999.21
2019-02-09T08:11:49.509Z,999.24
2019-02-09T08:12:48.101Z,999.26
2019-02-09T08:13:46.820Z,999.3
2019-02-09T08:14:45.593Z,999.29
2019-02-09T08:15:44.190Z,999.28
2019-02-09T08:16:42.842Z,999.28
2019-02-09T08:17:41.385Z,999.38
2019-02-09T08:18:39.937Z,999.39
2019-02-09T08:19:38.611Z,999.28
2019-02-09T08:20:37.326Z,999.39
2019-02-09T08:21:35.989Z,999.4
2019-02-09T08:22:34.616Z,999.39
2019-02-09T08:23:33.169Z,999.43
2019-02-09T08:24:31.761Z,999.36
2019-02-09T08:25:30.343Z,999.44
2019-02-09T08:26:28.983Z,999.39
2019-02-09T08:27:29.787Z,999.48
2019-02-09T08:28:28.381Z,999.43
2019-02-09T08:29:27.074Z,999.42
2019-02-09T08:30:25.616Z,999.44
2019-02-09T08:31:24.238Z,999.48
2019-02-09T08:32:22.790Z,999.41
2019-02-09T08:33:21.371Z,999.42
2019-02-09T08:34:19.911Z,999.39
2019-02-09T08:35:18.439Z,999.41
2019-02-09T08:36:17.000Z,999.47
2019-02-09T08:37:15.619Z,999.43
2019-02-09T08:38:14.377Z,999.29
2019-02-09T08:39:12.934Z,999.33
2019-02-09T08:41:55.959Z,999.44
2019-02-09T08:42:54.666Z,999.43
2019-02-09T08:43:53.260Z,999.4
2019-02-09T08:46:51.435Z,999.39
2019-02-09T08:47:49.986Z,999.41
2019-02-09T08:48:48.672Z,999.34
2019-02-09T08:49:47.255Z,999.38
2019-02-09T08:50:45.826Z,999.41
2019-02-09T08:51:44.393Z,999.41
2019-02-09T08:52:42.962Z,999.38
2019-02-09T08:53:41.515Z,999.37
2019-02-09T08:54:40.068Z,999.43
2019-02-09T08:55:38.653Z,999.49
2019-02-09T08:56:37.250Z,999.45
2019-02-09T08:57:35.779Z,999.38
2019-02-09T08:58:34.425Z,999.31
2019-02-09T08:59:33.062Z,999.28
2019-02-09T09:00:31.737Z,999.34
2019-02-09T09:01:30.494Z,999.31
2019-02-09T09:02:29.073Z,999.35
2019-02-09T09:03:27.607Z,999.48
2019-02-09T09:04:26.171Z,999.43
2019-02-09T09:05:24.705Z,999.51
2019-02-09T09:06:23.327Z,999.54
2019-02-09T09:07:21.855Z,999.61
2019-02-09T09:08:20.671Z,999.58
2019-02-09T09:09:19.335Z,999.62
2019-02-09T09:10:18.158Z,999.63
2019-02-09T09:11:16.664Z,999.6
2019-02-09T09:12:15.233Z,999.65
2019-02-09T09:13:13.815Z,999.57
2019-02-09T09:14:12.336Z,999.67
2019-02-09T09:15:11.040Z,999.63
2019-02-09T09:16:09.614Z,999.7
2019-02-09T09:17:08.320Z,999.64
2019-02-09T09:18:06.989Z,999.59
2019-02-09T09:19:05.517Z,999.61
2019-02-09T09:20:04.204Z,999.69
2019-02-09T09:21:02.844Z,999.64
2019-02-09T09:22:01.400Z,999.62
2019-02-09T09:22:59.967Z,999.67
2019-02-09T09:23:58.585Z,999.63
2019-02-09T09:24:57.184Z,999.66
2019-02-09T09:25:55.756Z,999.67
2019-02-09T09:26:54.374Z,999.63
2019-02-09T09:27:53.218Z,999.6
2019-02-09T09:28:51.794Z,999.72
2019-02-09T09:29:50.548Z,999.62
2019-02-09T09:30:49.072Z,999.6
2019-02-09T09:31:47.690Z,999.7
2019-02-09T09:32:46.292Z,999.76
2019-02-09T09:33:45.432Z,999.74
2019-02-09T09:34:44.022Z,999.81
2019-02-09T09:35:42.614Z,999.79
2019-02-09T09:36:41.250Z,999.84
2019-02-09T09:37:39.821Z,999.96
2019-02-09T09:38:38.563Z,999.94
2019-02-09T09:39:37.215Z,999.95
2019-02-09T09:40:35.781Z,1000.08
2019-02-09T09:41:34.605Z,1000.03
2019-02-09T09:42:33.153Z,1000
2019-02-09T09:43:31.735Z,999.96
2019-02-09T09:44:31.285Z,999.92
2019-02-09T09:45:29.117Z,999.97
2019-02-09T09:46:27.701Z,1000.05
2019-02-09T09:47:26.219Z,999.97
2019-02-09T09:48:25.101Z,1000.02
2019-02-09T09:49:23.621Z,1000.02
2019-02-09T09:50:22.251Z,999.94
2019-02-09T09:51:20.809Z,999.99
2019-02-09T09:52:19.384Z,1000.02
2019-02-09T09:53:17.977Z,1000.08
2019-02-09T09:54:16.546Z,1000.06
2019-02-09T09:55:15.322Z,1000.03
2019-02-09T09:56:14.331Z,1000.08
2019-02-09T09:57:12.411Z,1000.08
2019-02-09T09:58:11.283Z,999.97
2019-02-09T09:59:09.824Z,1000.03
2019-02-09T10:00:08.400Z,1000.09
2019-02-09T10:01:06.988Z,1000.1
2019-02-09T10:03:58.728Z,1000.07
2019-02-09T10:04:57.275Z,1000.15
2019-02-09T10:05:55.824Z,1000.1
2019-02-09T10:06:54.611Z,1000.14
2019-02-09T10:07:53.186Z,1000.21
2019-02-09T10:08:51.783Z,1000.22
2019-02-09T10:09:50.653Z,1000.25
2019-02-09T10:10:49.206Z,1000.29
2019-02-09T10:11:47.752Z,1000.25
2019-02-09T10:12:46.259Z,1000.32
2019-02-09T10:13:44.882Z,1000.31
2019-02-09T10:14:43.437Z,1000.3
2019-02-09T10:15:41.970Z,1000.27
2019-02-09T10:16:40.717Z,1000.26
2019-02-09T10:17:39.290Z,1000.38
2019-02-09T10:18:37.851Z,1000.39
2019-02-09T10:19:36.426Z,1000.31
2019-02-09T10:32:23.771Z,1000.35
2019-02-09T10:35:04.302Z,1000.33
2019-02-09T10:36:02.897Z,1000.26
2019-02-09T10:37:01.442Z,1000.27
2019-02-09T10:38:00.017Z,1000.32
2019-02-09T10:38:58.579Z,1000.32
2019-02-09T10:39:57.124Z,1000.35
2019-02-09T10:40:55.669Z,1000.34
2019-02-09T10:41:54.210Z,1000.38
2019-02-09T10:42:52.977Z,1000.37
2019-02-09T10:43:51.556Z,1000.35
2019-02-09T10:44:50.136Z,1000.39
2019-02-09T10:45:48.949Z,1000.44
2019-02-09T10:46:47.707Z,1000.38
2019-02-09T10:47:46.235Z,1000.32
2019-02-09T10:48:44.798Z,1000.35
2019-02-09T10:49:43.368Z,1000.36
2019-02-09T10:53:22.288Z,1000.28
2019-02-09T10:54:21.025Z,1000.31
2019-02-09T10:55:19.603Z,1000.3
2019-02-09T10:56:18.311Z,1000.25
2019-02-09T10:57:16.965Z,1000.28
2019-02-09T10:58:15.627Z,1000.28
2019-02-09T10:59:14.156Z,1000.22
2019-02-09T11:00:13.849Z,1000.33
2019-02-09T11:01:11.563Z,1000.33
2019-02-09T11:02:10.149Z,1000.29
2019-02-09T11:03:08.781Z,1000.37
2019-02-09T11:04:07.372Z,1000.42
2019-02-09T11:05:05.963Z,1000.42
2019-02-09T11:06:04.527Z,1000.41
2019-02-09T11:07:03.232Z,1000.45
2019-02-09T11:08:01.946Z,1000.44
2019-02-09T11:09:00.454Z,1000.45
2019-02-09T11:09:59.083Z,1000.41
2019-02-09T11:10:57.611Z,1000.39
2019-02-09T11:11:56.368Z,1000.44
2019-02-09T11:12:54.953Z,1000.47
2019-02-09T11:13:53.565Z,1000.39
2019-02-09T11:14:52.104Z,1000.42
2019-02-09T11:15:50.836Z,1000.43
2019-02-09T11:16:49.420Z,1000.45
2019-02-09T11:17:48.031Z,1000.4
2019-02-09T11:18:46.703Z,1000.4
2019-02-09T11:19:46.720Z,1000.36
2019-02-09T11:20:44.019Z,1000.37
2019-02-09T11:21:42.568Z,1000.35
2019-02-09T11:22:41.209Z,1000.36
2019-02-09T11:23:39.776Z,1000.36
2019-02-09T11:24:38.359Z,1000.39
2019-02-09T11:25:37.162Z,1000.38
2019-02-09T11:26:35.736Z,1000.39
2019-02-09T11:27:34.570Z,1000.36
2019-02-09T11:28:33.152Z,1000.36
2019-02-09T11:29:31.743Z,1000.41
2019-02-09T11:30:30.289Z,1000.43
2019-02-09T11:31:28.852Z,1000.41
2019-02-09T11:32:27.472Z,1000.41
2019-02-09T11:33:26.090Z,1000.37
2019-02-09T11:34:24.788Z,1000.35
2019-02-09T11:35:23.799Z,1000.27
2019-02-09T11:36:22.149Z,1000.27
2019-02-09T11:37:20.842Z,1000.29
2019-02-09T11:38:19.395Z,1000.31
2019-02-09T11:39:18.108Z,1000.33
2019-02-09T11:40:16.901Z,1000.3
2019-02-09T11:42:57.074Z,1000.28
2019-02-09T11:43:55.640Z,1000.22
2019-02-09T11:44:54.263Z,1000.19
2019-02-09T11:45:52.839Z,1000.23
2019-02-09T11:46:51.440Z,1000.23
2019-02-09T11:47:50.010Z,1000.24
2019-02-09T11:51:29.365Z,1000.15
2019-02-09T11:52:28.005Z,1000.19
2019-02-09T11:53:26.686Z,1000.12
2019-02-09T11:54:25.545Z,1000.14
2019-02-09T11:55:24.158Z,1000.19
2019-02-09T11:56:22.744Z,1000.28
2019-02-09T11:57:21.329Z,1000.23
2019-02-09T11:58:19.868Z,1000.14
2019-02-09T12:13:41.688Z,1000.2
2019-02-09T12:16:25.856Z,1000.2
2019-02-09T12:17:24.575Z,1000.2
2019-02-09T12:21:05.162Z,1000.29
2019-02-09T12:22:03.747Z,1000.27
2019-02-09T12:23:02.408Z,1000.26
2019-02-09T12:24:00.981Z,1000.18
2019-02-09T12:24:59.513Z,1000.29
2019-02-09T12:25:58.119Z,1000.23
2019-02-09T12:26:56.899Z,1000.31
2019-02-09T12:27:55.514Z,1000.28
2019-02-09T12:28:54.134Z,1000.24
2019-02-09T12:32:33.644Z,1000.27
2019-02-09T12:50:32.696Z,1000.02
2019-02-09T12:51:31.814Z,1000.07
2019-02-09T12:52:30.650Z,1000.07
2019-02-09T12:53:29.265Z,1000.14
2019-02-09T12:54:27.969Z,1000.06
2019-02-09T12:55:26.752Z,1000.18
2019-02-09T12:56:25.387Z,1000.1
2019-02-09T12:57:23.962Z,1000.24
2019-02-09T12:58:22.730Z,1000.14
2019-02-09T13:00:46.863Z,1000.14
2019-02-09T13:01:45.473Z,1000.17
2019-02-09T13:02:43.995Z,1000.12
2019-02-09T13:03:42.568Z,1000.21
2019-02-09T13:04:41.135Z,1000.18
2019-02-09T13:05:39.937Z,1000.17
2019-02-09T13:06:38.617Z,1000.11
2019-02-09T13:07:37.423Z,1000.12
2019-02-09T13:08:35.993Z,1000.11
2019-02-09T13:09:34.637Z,1000.19
2019-02-09T13:10:33.257Z,1000.1
2019-02-09T13:11:31.958Z,1000.18
2019-02-09T13:12:30.525Z,1000.19
2019-02-09T13:13:29.235Z,1000.16
2019-02-09T13:14:27.953Z,1000.19
2019-02-09T13:15:26.901Z,1000.19
2019-02-09T13:16:25.430Z,1000.19
2019-02-09T13:17:24.046Z,1000.18
2019-02-09T13:18:22.798Z,1000.2
2019-02-09T13:19:21.626Z,1000.15